sensor_id;sensor_type;location;lat;lon;timestamp;P1;durP1;ratioP1;P2;durP2;ratioP2
25331;SDS011;13284;52.748;13.452;2022-10-17T00:00:40;2.70;;;2.43;;
25331;SDS011;13284;52.748;13.452;2022-10-17T00:03:05;6.03;;;3.00;;
25331;SDS011;13284;52.748;13.452;2022-10-17T00:05:31;5.70;;;3.50;;
25331;SDS011;13284;52.748;13.452;2022-10-17T00:07:57;3.40;;;3.10;;
25331;SDS011;13284;52.748;13.452;2022-10-17T00:10:22;3.53;;;3.00;;
25331;SDS011;13284;52.748;13.452;2022-10-17T00:12:49;4.13;;;3.43;;
25331;SDS011;13284;52.748;13.452;2022-10-17T00:15:16;3.40;;;3.10;;
25331;SDS011;13284;52.748;13.452;2022-10-17T00:17:43;4.07;;;3.50;;
25331;SDS011;13284;52.748;13.452;2022-10-17T00:20:09;3.93;;;3.43;;
25331;SDS011;13284;52.748;13.452;2022-10-17T00:22:35;3.17;;;2.87;;
25331;SDS011;13284;52.748;13.452;2022-10-17T00:25:01;4.07;;;3.20;;
25331;SDS011;13284;52.748;13.452;2022-10-17T00:27:27;3.53;;;2.80;;
25331;SDS011;13284;52.748;13.452;2022-10-17T00:29:53;5.97;;;3.90;;
25331;SDS011;13284;52.748;13.452;2022-10-17T00:32:18;4.10;;;3.80;;
25331;SDS011;13284;52.748;13.452;2022-10-17T00:34:45;4.50;;;3.90;;
25331;SDS011;13284;52.748;13.452;2022-10-17T00:37:10;4.30;;;3.90;;
25331;SDS011;13284;52.748;13.452;2022-10-17T00:39:38;3.17;;;2.97;;
25331;SDS011;13284;52.748;13.452;2022-10-17T00:42:03;3.80;;;3.50;;
25331;SDS011;13284;52.748;13.452;2022-10-17T00:47:03;5.53;;;3.70;;
25331;SDS011;13284;52.748;13.452;2022-10-17T00:49:33;8.13;;;3.53;;
25331;SDS011;13284;52.748;13.452;2022-10-17T00:52:02;4.00;;;3.60;;
25331;SDS011;13284;52.748;13.452;2022-10-17T00:54:33;3.53;;;3.17;;
25331;SDS011;13284;52.748;13.452;2022-10-17T00:57:01;5.17;;;3.43;;
25331;SDS011;13284;52.748;13.452;2022-10-17T00:59:27;3.70;;;3.30;;
25331;SDS011;13284;52.748;13.452;2022-10-17T01:01:59;3.10;;;2.80;;
25331;SDS011;13284;52.748;13.452;2022-10-17T01:04:28;4.07;;;3.77;;
25331;SDS011;13284;52.748;13.452;2022-10-17T01:06:54;3.50;;;3.20;;
25331;SDS011;13284;52.748;13.452;2022-10-17T01:09:19;4.43;;;3.10;;
25331;SDS011;13284;52.748;13.452;2022-10-17T01:11:49;4.50;;;3.50;;
25331;SDS011;13284;52.748;13.452;2022-10-17T01:14:30;3.70;;;3.40;;
25331;SDS011;13284;52.748;13.452;2022-10-17T01:17:17;4.37;;;3.57;;
25331;SDS011;13284;52.748;13.452;2022-10-17T01:20:14;3.57;;;3.03;;
25331;SDS011;13284;52.748;13.452;2022-10-17T01:22:50;4.23;;;3.43;;
25331;SDS011;13284;52.748;13.452;2022-10-17T01:25:47;5.30;;;3.33;;
25331;SDS011;13284;52.748;13.452;2022-10-17T01:28:28;3.33;;;3.03;;
25331;SDS011;13284;52.748;13.452;2022-10-17T01:36:26;3.90;;;3.50;;
25331;SDS011;13284;52.748;13.452;2022-10-17T01:42:00;4.53;;;3.57;;
25331;SDS011;13284;52.748;13.452;2022-10-17T01:44:52;6.00;;;4.03;;
25331;SDS011;13284;52.748;13.452;2022-10-17T01:47:23;3.40;;;3.10;;
25331;SDS011;13284;52.748;13.452;2022-10-17T01:49:52;5.43;;;3.67;;
25331;SDS011;13284;52.748;13.452;2022-10-17T01:52:26;3.13;;;2.93;;
25331;SDS011;13284;52.748;13.452;2022-10-17T01:55:18;3.67;;;3.37;;
25331;SDS011;13284;52.748;13.452;2022-10-17T01:57:50;4.80;;;3.17;;
25331;SDS011;13284;52.748;13.452;2022-10-17T02:00:22;4.70;;;4.20;;
25331;SDS011;13284;52.748;13.452;2022-10-17T02:03:00;4.53;;;4.13;;
25331;SDS011;13284;52.748;13.452;2022-10-17T02:05:31;4.10;;;3.70;;
25331;SDS011;13284;52.748;13.452;2022-10-17T02:08:01;5.00;;;3.93;;
25331;SDS011;13284;52.748;13.452;2022-10-17T02:10:46;3.47;;;3.17;;
25331;SDS011;13284;52.748;13.452;2022-10-17T02:16:20;3.50;;;3.20;;
25331;SDS011;13284;52.748;13.452;2022-10-17T02:21:50;3.30;;;3.00;;
25331;SDS011;13284;52.748;13.452;2022-10-17T02:27:01;3.53;;;2.93;;
25331;SDS011;13284;52.748;13.452;2022-10-17T02:29:35;3.27;;;2.97;;
25331;SDS011;13284;52.748;13.452;2022-10-17T02:32:10;3.33;;;2.97;;
25331;SDS011;13284;52.748;13.452;2022-10-17T02:34:42;3.60;;;2.83;;
25331;SDS011;13284;52.748;13.452;2022-10-17T02:37:15;3.83;;;3.53;;
25331;SDS011;13284;52.748;13.452;2022-10-17T02:39:45;2.93;;;2.73;;
25331;SDS011;13284;52.748;13.452;2022-10-17T02:42:12;3.03;;;2.70;;
25331;SDS011;13284;52.748;13.452;2022-10-17T02:44:39;2.83;;;2.63;;
25331;SDS011;13284;52.748;13.452;2022-10-17T02:47:15;2.80;;;2.60;;
25331;SDS011;13284;52.748;13.452;2022-10-17T02:49:48;3.17;;;2.87;;
25331;SDS011;13284;52.748;13.452;2022-10-17T02:52:36;2.30;;;2.10;;
25331;SDS011;13284;52.748;13.452;2022-10-17T02:55:24;2.30;;;2.10;;
25331;SDS011;13284;52.748;13.452;2022-10-17T02:58:01;3.27;;;2.40;;
25331;SDS011;13284;52.748;13.452;2022-10-17T03:00:32;2.07;;;1.87;;
25331;SDS011;13284;52.748;13.452;2022-10-17T03:02:58;2.83;;;2.50;;
25331;SDS011;13284;52.748;13.452;2022-10-17T03:05:25;2.30;;;2.10;;
25331;SDS011;13284;52.748;13.452;2022-10-17T03:07:53;2.37;;;2.17;;
25331;SDS011;13284;52.748;13.452;2022-10-17T03:10:19;3.67;;;2.60;;
25331;SDS011;13284;52.748;13.452;2022-10-17T03:12:45;2.40;;;2.20;;
25331;SDS011;13284;52.748;13.452;2022-10-17T03:15:11;2.67;;;2.40;;
25331;SDS011;13284;52.748;13.452;2022-10-17T03:17:37;3.87;;;2.40;;
25331;SDS011;13284;52.748;13.452;2022-10-17T03:20:03;1.80;;;1.70;;
25331;SDS011;13284;52.748;13.452;2022-10-17T03:22:30;2.20;;;2.00;;
25331;SDS011;13284;52.748;13.452;2022-10-17T03:24:56;2.40;;;2.20;;
25331;SDS011;13284;52.748;13.452;2022-10-17T03:27:21;2.27;;;2.07;;
25331;SDS011;13284;52.748;13.452;2022-10-17T03:29:47;2.60;;;2.40;;
25331;SDS011;13284;52.748;13.452;2022-10-17T03:32:13;2.40;;;2.07;;
25331;SDS011;13284;52.748;13.452;2022-10-17T03:34:38;2.43;;;2.23;;
25331;SDS011;13284;52.748;13.452;2022-10-17T03:37:05;3.27;;;2.40;;
25331;SDS011;13284;52.748;13.452;2022-10-17T03:39:31;2.10;;;2.00;;
25331;SDS011;13284;52.748;13.452;2022-10-17T03:41:56;2.43;;;2.23;;
25331;SDS011;13284;52.748;13.452;2022-10-17T03:44:22;2.60;;;2.40;;
25331;SDS011;13284;52.748;13.452;2022-10-17T03:46:48;3.20;;;2.20;;
25331;SDS011;13284;52.748;13.452;2022-10-17T03:49:13;5.50;;;3.10;;
25331;SDS011;13284;52.748;13.452;2022-10-17T03:51:39;3.10;;;2.90;;
25331;SDS011;13284;52.748;13.452;2022-10-17T03:54:04;2.60;;;2.40;;
25331;SDS011;13284;52.748;13.452;2022-10-17T03:56:30;2.97;;;2.40;;
25331;SDS011;13284;52.748;13.452;2022-10-17T03:58:55;3.20;;;2.90;;
25331;SDS011;13284;52.748;13.452;2022-10-17T04:01:21;2.80;;;2.60;;
25331;SDS011;13284;52.748;13.452;2022-10-17T04:03:49;2.57;;;2.37;;
25331;SDS011;13284;52.748;13.452;2022-10-17T04:06:16;3.17;;;2.97;;
25331;SDS011;13284;52.748;13.452;2022-10-17T04:08:42;2.75;;;2.55;;
25331;SDS011;13284;52.748;13.452;2022-10-17T04:11:09;3.47;;;3.17;;
25331;SDS011;13284;52.748;13.452;2022-10-17T04:13:37;2.60;;;2.40;;
25331;SDS011;13284;52.748;13.452;2022-10-17T04:16:06;3.17;;;2.93;;
25331;SDS011;13284;52.748;13.452;2022-10-17T04:18:34;2.90;;;2.70;;
25331;SDS011;13284;52.748;13.452;2022-10-17T04:21:00;2.80;;;2.60;;
25331;SDS011;13284;52.748;13.452;2022-10-17T04:23:27;2.90;;;2.70;;
25331;SDS011;13284;52.748;13.452;2022-10-17T04:25:56;3.03;;;2.73;;
25331;SDS011;13284;52.748;13.452;2022-10-17T04:28:23;3.47;;;3.17;;
25331;SDS011;13284;52.748;13.452;2022-10-17T04:30:59;3.23;;;3.00;;
25331;SDS011;13284;52.748;13.452;2022-10-17T04:33:26;3.40;;;3.10;;
25331;SDS011;13284;52.748;13.452;2022-10-17T04:36:02;3.30;;;3.00;;
25331;SDS011;13284;52.748;13.452;2022-10-17T04:38:29;3.63;;;3.33;;
25331;SDS011;13284;52.748;13.452;2022-10-17T04:40:56;3.80;;;3.40;;
25331;SDS011;13284;52.748;13.452;2022-10-17T04:43:22;3.57;;;3.27;;
25331;SDS011;13284;52.748;13.452;2022-10-17T04:45:48;3.67;;;3.37;;
25331;SDS011;13284;52.748;13.452;2022-10-17T04:48:13;3.83;;;3.40;;
25331;SDS011;13284;52.748;13.452;2022-10-17T04:50:39;4.20;;;3.30;;
25331;SDS011;13284;52.748;13.452;2022-10-17T04:53:04;4.10;;;3.70;;
25331;SDS011;13284;52.748;13.452;2022-10-17T04:55:29;4.10;;;3.63;;
25331;SDS011;13284;52.748;13.452;2022-10-17T04:57:55;4.10;;;3.70;;
25331;SDS011;13284;52.748;13.452;2022-10-17T05:00:21;3.97;;;3.60;;
25331;SDS011;13284;52.748;13.452;2022-10-17T05:02:46;3.60;;;3.30;;
25331;SDS011;13284;52.748;13.452;2022-10-17T05:05:12;4.30;;;3.90;;
25331;SDS011;13284;52.748;13.452;2022-10-17T05:07:40;3.87;;;3.57;;
25331;SDS011;13284;52.748;13.452;2022-10-17T05:10:06;3.93;;;3.63;;
25331;SDS011;13284;52.748;13.452;2022-10-17T05:12:32;4.10;;;3.70;;
25331;SDS011;13284;52.748;13.452;2022-10-17T05:14:57;3.63;;;3.33;;
25331;SDS011;13284;52.748;13.452;2022-10-17T05:17:23;4.50;;;4.10;;
25331;SDS011;13284;52.748;13.452;2022-10-17T05:19:49;4.27;;;3.87;;
25331;SDS011;13284;52.748;13.452;2022-10-17T05:22:14;3.50;;;3.20;;
25331;SDS011;13284;52.748;13.452;2022-10-17T05:24:40;4.70;;;4.17;;
25331;SDS011;13284;52.748;13.452;2022-10-17T05:27:05;4.50;;;3.93;;
25331;SDS011;13284;52.748;13.452;2022-10-17T05:29:31;5.67;;;4.50;;
25331;SDS011;13284;52.748;13.452;2022-10-17T05:31:56;4.43;;;3.93;;
25331;SDS011;13284;52.748;13.452;2022-10-17T05:34:22;5.23;;;4.80;;
25331;SDS011;13284;52.748;13.452;2022-10-17T05:36:48;6.60;;;4.13;;
25331;SDS011;13284;52.748;13.452;2022-10-17T05:39:14;4.50;;;4.10;;
25331;SDS011;13284;52.748;13.452;2022-10-17T05:41:43;5.23;;;4.73;;
25331;SDS011;13284;52.748;13.452;2022-10-17T05:44:09;6.43;;;4.17;;
25331;SDS011;13284;52.748;13.452;2022-10-17T05:46:34;3.93;;;3.53;;
25331;SDS011;13284;52.748;13.452;2022-10-17T05:49:00;4.73;;;4.30;;
25331;SDS011;13284;52.748;13.452;2022-10-17T05:51:25;4.50;;;4.10;;
25331;SDS011;13284;52.748;13.452;2022-10-17T05:53:51;5.00;;;4.47;;
25331;SDS011;13284;52.748;13.452;2022-10-17T05:56:16;4.87;;;4.43;;
25331;SDS011;13284;52.748;13.452;2022-10-17T05:58:44;4.97;;;4.57;;
25331;SDS011;13284;52.748;13.452;2022-10-17T06:01:09;4.47;;;4.00;;
25331;SDS011;13284;52.748;13.452;2022-10-17T06:03:36;7.20;;;4.83;;
25331;SDS011;13284;52.748;13.452;2022-10-17T06:06:03;5.83;;;5.30;;
25331;SDS011;13284;52.748;13.452;2022-10-17T06:08:29;4.90;;;4.50;;
25331;SDS011;13284;52.748;13.452;2022-10-17T06:10:55;6.00;;;5.10;;
25331;SDS011;13284;52.748;13.452;2022-10-17T06:13:21;5.03;;;4.63;;
25331;SDS011;13284;52.748;13.452;2022-10-17T06:15:46;5.90;;;5.37;;
25331;SDS011;13284;52.748;13.452;2022-10-17T06:18:12;5.10;;;4.60;;
25331;SDS011;13284;52.748;13.452;2022-10-17T06:20:37;6.10;;;5.43;;
25331;SDS011;13284;52.748;13.452;2022-10-17T06:23:03;5.57;;;5.17;;
25331;SDS011;13284;52.748;13.452;2022-10-17T06:25:30;5.83;;;5.07;;
25331;SDS011;13284;52.748;13.452;2022-10-17T06:27:56;6.20;;;5.53;;
25331;SDS011;13284;52.748;13.452;2022-10-17T06:30:22;5.50;;;5.03;;
25331;SDS011;13284;52.748;13.452;2022-10-17T06:32:47;6.10;;;5.50;;
25331;SDS011;13284;52.748;13.452;2022-10-17T06:35:13;5.00;;;4.50;;
25331;SDS011;13284;52.748;13.452;2022-10-17T06:37:38;5.60;;;5.00;;
25331;SDS011;13284;52.748;13.452;2022-10-17T06:40:05;5.80;;;5.30;;
25331;SDS011;13284;52.748;13.452;2022-10-17T06:42:32;5.20;;;4.70;;
25331;SDS011;13284;52.748;13.452;2022-10-17T06:44:58;5.53;;;4.90;;
25331;SDS011;13284;52.748;13.452;2022-10-17T06:47:23;5.90;;;5.30;;
25331;SDS011;13284;52.748;13.452;2022-10-17T06:49:49;5.33;;;4.83;;
25331;SDS011;13284;52.748;13.452;2022-10-17T06:52:14;7.03;;;6.20;;
25331;SDS011;13284;52.748;13.452;2022-10-17T06:54:41;5.00;;;4.37;;
25331;SDS011;13284;52.748;13.452;2022-10-17T06:57:07;5.67;;;5.17;;
25331;SDS011;13284;52.748;13.452;2022-10-17T06:59:33;5.27;;;4.83;;
25331;SDS011;13284;52.748;13.452;2022-10-17T07:01:59;6.00;;;5.40;;
25331;SDS011;13284;52.748;13.452;2022-10-17T07:04:25;5.43;;;4.97;;
25331;SDS011;13284;52.748;13.452;2022-10-17T07:06:51;5.07;;;4.67;;
25331;SDS011;13284;52.748;13.452;2022-10-17T07:09:17;6.33;;;5.00;;
25331;SDS011;13284;52.748;13.452;2022-10-17T07:11:43;5.63;;;5.00;;
25331;SDS011;13284;52.748;13.452;2022-10-17T07:14:08;5.13;;;4.47;;
25331;SDS011;13284;52.748;13.452;2022-10-17T07:16:34;5.13;;;4.70;;
25331;SDS011;13284;52.748;13.452;2022-10-17T07:19:00;5.33;;;4.83;;
25331;SDS011;13284;52.748;13.452;2022-10-17T07:21:26;7.90;;;7.10;;
25331;SDS011;13284;52.748;13.452;2022-10-17T07:23:51;6.80;;;5.57;;
25331;SDS011;13284;52.748;13.452;2022-10-17T07:26:17;5.67;;;5.10;;
25331;SDS011;13284;52.748;13.452;2022-10-17T07:28:44;4.83;;;4.40;;
25331;SDS011;13284;52.748;13.452;2022-10-17T07:31:12;5.50;;;5.00;;
25331;SDS011;13284;52.748;13.452;2022-10-17T07:33:40;4.60;;;4.20;;
25331;SDS011;13284;52.748;13.452;2022-10-17T07:36:06;5.13;;;4.50;;
25331;SDS011;13284;52.748;13.452;2022-10-17T07:38:32;7.30;;;4.50;;
25331;SDS011;13284;52.748;13.452;2022-10-17T07:40:59;5.13;;;4.67;;
25331;SDS011;13284;52.748;13.452;2022-10-17T07:43:25;5.73;;;4.93;;
25331;SDS011;13284;52.748;13.452;2022-10-17T07:45:52;6.10;;;4.33;;
25331;SDS011;13284;52.748;13.452;2022-10-17T07:48:18;5.17;;;4.53;;
25331;SDS011;13284;52.748;13.452;2022-10-17T07:50:44;5.10;;;4.70;;
25331;SDS011;13284;52.748;13.452;2022-10-17T07:53:10;4.90;;;4.50;;
25331;SDS011;13284;52.748;13.452;2022-10-17T07:55:37;5.30;;;4.80;;
25331;SDS011;13284;52.748;13.452;2022-10-17T07:58:03;5.17;;;4.23;;
25331;SDS011;13284;52.748;13.452;2022-10-17T08:00:29;6.80;;;4.77;;
25331;SDS011;13284;52.748;13.452;2022-10-17T08:02:54;5.47;;;4.90;;
25331;SDS011;13284;52.748;13.452;2022-10-17T08:05:20;6.50;;;5.17;;
25331;SDS011;13284;52.748;13.452;2022-10-17T08:07:45;5.47;;;4.97;;
25331;SDS011;13284;52.748;13.452;2022-10-17T08:10:12;5.53;;;4.57;;
25331;SDS011;13284;52.748;13.452;2022-10-17T08:12:39;8.00;;;4.97;;
25331;SDS011;13284;52.748;13.452;2022-10-17T08:15:05;5.30;;;4.80;;
25331;SDS011;13284;52.748;13.452;2022-10-17T08:17:36;6.30;;;4.70;;
25331;SDS011;13284;52.748;13.452;2022-10-17T08:20:03;4.87;;;3.90;;
25331;SDS011;13284;52.748;13.452;2022-10-17T08:22:29;4.43;;;4.03;;
25331;SDS011;13284;52.748;13.452;2022-10-17T08:24:55;4.17;;;3.87;;
25331;SDS011;13284;52.748;13.452;2022-10-17T08:27:21;4.80;;;4.30;;
25331;SDS011;13284;52.748;13.452;2022-10-17T08:29:49;4.80;;;4.27;;
25331;SDS011;13284;52.748;13.452;2022-10-17T08:32:18;5.40;;;4.30;;
25331;SDS011;13284;52.748;13.452;2022-10-17T08:34:45;8.23;;;4.20;;
25331;SDS011;13284;52.748;13.452;2022-10-17T08:37:11;7.00;;;3.80;;
25331;SDS011;13284;52.748;13.452;2022-10-17T08:39:42;4.80;;;4.40;;
25331;SDS011;13284;52.748;13.452;2022-10-17T08:42:25;4.40;;;4.00;;
25331;SDS011;13284;52.748;13.452;2022-10-17T08:47:48;3.60;;;3.30;;
25331;SDS011;13284;52.748;13.452;2022-10-17T08:53:20;4.67;;;4.20;;
25331;SDS011;13284;52.748;13.452;2022-10-17T08:55:53;4.20;;;3.60;;
25331;SDS011;13284;52.748;13.452;2022-10-17T08:58:20;5.27;;;3.83;;
25331;SDS011;13284;52.748;13.452;2022-10-17T09:03:50;3.80;;;3.20;;
25331;SDS011;13284;52.748;13.452;2022-10-17T09:06:32;3.83;;;3.40;;
25331;SDS011;13284;52.748;13.452;2022-10-17T09:22:26;3.97;;;3.40;;
25331;SDS011;13284;52.748;13.452;2022-10-17T09:24:56;4.77;;;3.33;;
25331;SDS011;13284;52.748;13.452;2022-10-17T09:27:26;4.03;;;3.27;;
25331;SDS011;13284;52.748;13.452;2022-10-17T09:32:53;3.53;;;2.80;;
25331;SDS011;13284;52.748;13.452;2022-10-17T09:35:19;3.87;;;3.57;;
25331;SDS011;13284;52.748;13.452;2022-10-17T09:37:46;4.50;;;3.40;;
25331;SDS011;13284;52.748;13.452;2022-10-17T09:40:17;3.30;;;3.03;;
25331;SDS011;13284;52.748;13.452;2022-10-17T09:42:48;4.67;;;3.43;;
25331;SDS011;13284;52.748;13.452;2022-10-17T09:45:18;3.43;;;3.13;;
25331;SDS011;13284;52.748;13.452;2022-10-17T09:47:54;3.20;;;2.90;;
25331;SDS011;13284;52.748;13.452;2022-10-17T09:50:30;4.10;;;3.80;;
25331;SDS011;13284;52.748;13.452;2022-10-17T09:53:02;3.83;;;3.50;;
25331;SDS011;13284;52.748;13.452;2022-10-17T09:55:37;3.00;;;2.70;;
25331;SDS011;13284;52.748;13.452;2022-10-17T09:58:08;3.70;;;3.30;;
25331;SDS011;13284;52.748;13.452;2022-10-17T10:00:36;3.00;;;2.77;;
25331;SDS011;13284;52.748;13.452;2022-10-17T10:05:57;3.73;;;2.90;;
25331;SDS011;13284;52.748;13.452;2022-10-17T10:08:29;3.30;;;3.03;;
25331;SDS011;13284;52.748;13.452;2022-10-17T10:11:12;4.20;;;3.10;;
25331;SDS011;13284;52.748;13.452;2022-10-17T10:13:38;3.43;;;3.13;;
25331;SDS011;13284;52.748;13.452;2022-10-17T10:16:20;5.13;;;3.57;;
25331;SDS011;13284;52.748;13.452;2022-10-17T10:18:53;4.37;;;3.20;;
25331;SDS011;13284;52.748;13.452;2022-10-17T10:21:23;4.50;;;3.13;;
25331;SDS011;13284;52.748;13.452;2022-10-17T10:26:44;3.97;;;3.60;;
25331;SDS011;13284;52.748;13.452;2022-10-17T10:29:21;5.00;;;3.63;;
25331;SDS011;13284;52.748;13.452;2022-10-17T10:31:57;2.87;;;2.67;;
25331;SDS011;13284;52.748;13.452;2022-10-17T10:34:54;7.37;;;3.43;;
25331;SDS011;13284;52.748;13.452;2022-10-17T10:37:41;4.57;;;2.83;;
25331;SDS011;13284;52.748;13.452;2022-10-17T10:42:51;7.70;;;4.40;;
25331;SDS011;13284;52.748;13.452;2022-10-17T10:45:20;4.37;;;3.13;;
25331;SDS011;13284;52.748;13.452;2022-10-17T10:47:54;4.30;;;3.63;;
25331;SDS011;13284;52.748;13.452;2022-10-17T10:53:12;3.20;;;2.90;;
25331;SDS011;13284;52.748;13.452;2022-10-17T10:55:57;4.00;;;2.70;;
25331;SDS011;13284;52.748;13.452;2022-10-17T11:01:28;3.40;;;3.10;;
25331;SDS011;13284;52.748;13.452;2022-10-17T11:04:10;3.23;;;2.93;;
25331;SDS011;13284;52.748;13.452;2022-10-17T11:06:43;3.33;;;3.03;;
25331;SDS011;13284;52.748;13.452;2022-10-17T11:09:22;2.70;;;2.50;;
25331;SDS011;13284;52.748;13.452;2022-10-17T11:12:05;3.43;;;3.23;;
25331;SDS011;13284;52.748;13.452;2022-10-17T11:14:47;2.90;;;2.70;;
25331;SDS011;13284;52.748;13.452;2022-10-17T11:20:06;4.00;;;2.97;;
25331;SDS011;13284;52.748;13.452;2022-10-17T11:22:48;3.67;;;2.60;;
25331;SDS011;13284;52.748;13.452;2022-10-17T11:28:11;2.90;;;2.60;;
25331;SDS011;13284;52.748;13.452;2022-10-17T11:30:40;2.67;;;2.47;;
25331;SDS011;13284;52.748;13.452;2022-10-17T11:33:16;2.47;;;2.30;;
25331;SDS011;13284;52.748;13.452;2022-10-17T11:35:44;3.83;;;2.73;;
25331;SDS011;13284;52.748;13.452;2022-10-17T11:38:23;4.63;;;2.80;;
25331;SDS011;13284;52.748;13.452;2022-10-17T11:41:12;3.60;;;3.30;;
25331;SDS011;13284;52.748;13.452;2022-10-17T11:43:47;5.47;;;3.00;;
25331;SDS011;13284;52.748;13.452;2022-10-17T11:46:21;3.10;;;2.37;;
25331;SDS011;13284;52.748;13.452;2022-10-17T11:48:56;2.90;;;2.70;;
25331;SDS011;13284;52.748;13.452;2022-10-17T11:51:35;6.57;;;3.13;;
25331;SDS011;13284;52.748;13.452;2022-10-17T11:56:46;4.27;;;3.30;;
25331;SDS011;13284;52.748;13.452;2022-10-17T12:01:48;5.73;;;2.93;;
25331;SDS011;13284;52.748;13.452;2022-10-17T12:04:38;3.10;;;2.63;;
25331;SDS011;13284;52.748;13.452;2022-10-17T12:07:23;3.10;;;2.90;;
25331;SDS011;13284;52.748;13.452;2022-10-17T12:15:51;2.63;;;2.43;;
25331;SDS011;13284;52.748;13.452;2022-10-17T12:18:16;4.57;;;2.90;;
25331;SDS011;13284;52.748;13.452;2022-10-17T12:20:42;3.27;;;2.97;;
25331;SDS011;13284;52.748;13.452;2022-10-17T12:23:20;2.90;;;2.70;;
25331;SDS011;13284;52.748;13.452;2022-10-17T12:25:51;3.17;;;2.80;;
25331;SDS011;13284;52.748;13.452;2022-10-17T12:28:26;3.13;;;2.50;;
25331;SDS011;13284;52.748;13.452;2022-10-17T12:33:37;4.30;;;3.10;;
25331;SDS011;13284;52.748;13.452;2022-10-17T12:38:45;5.10;;;2.77;;
25331;SDS011;13284;52.748;13.452;2022-10-17T12:41:12;3.13;;;2.40;;
25331;SDS011;13284;52.748;13.452;2022-10-17T12:43:51;2.90;;;2.60;;
25331;SDS011;13284;52.748;13.452;2022-10-17T12:46:40;2.93;;;2.40;;
25331;SDS011;13284;52.748;13.452;2022-10-17T12:52:14;4.30;;;2.90;;
25331;SDS011;13284;52.748;13.452;2022-10-17T12:57:40;2.90;;;2.47;;
25331;SDS011;13284;52.748;13.452;2022-10-17T13:00:20;3.40;;;3.10;;
25331;SDS011;13284;52.748;13.452;2022-10-17T13:03:00;3.13;;;2.80;;
25331;SDS011;13284;52.748;13.452;2022-10-17T13:05:50;3.33;;;2.80;;
25331;SDS011;13284;52.748;13.452;2022-10-17T13:08:19;2.97;;;2.53;;
25331;SDS011;13284;52.748;13.452;2022-10-17T13:10:52;3.03;;;2.83;;
25331;SDS011;13284;52.748;13.452;2022-10-17T13:13:19;3.20;;;2.53;;
25331;SDS011;13284;52.748;13.452;2022-10-17T13:16:00;2.20;;;2.03;;
25331;SDS011;13284;52.748;13.452;2022-10-17T13:18:26;2.83;;;2.17;;
25331;SDS011;13284;52.748;13.452;2022-10-17T13:20:57;5.93;;;2.50;;
25331;SDS011;13284;52.748;13.452;2022-10-17T13:23:23;2.73;;;2.37;;
25331;SDS011;13284;52.748;13.452;2022-10-17T13:26:03;3.27;;;2.73;;
25331;SDS011;13284;52.748;13.452;2022-10-17T13:28:30;4.10;;;2.87;;
25331;SDS011;13284;52.748;13.452;2022-10-17T13:30:56;3.40;;;2.70;;
25331;SDS011;13284;52.748;13.452;2022-10-17T13:33:40;3.50;;;3.20;;
25331;SDS011;13284;52.748;13.452;2022-10-17T13:36:06;2.50;;;2.30;;
25331;SDS011;13284;52.748;13.452;2022-10-17T13:38:37;3.03;;;2.73;;
25331;SDS011;13284;52.748;13.452;2022-10-17T13:41:02;3.83;;;2.60;;
25331;SDS011;13284;52.748;13.452;2022-10-17T13:43:34;2.57;;;2.37;;
25331;SDS011;13284;52.748;13.452;2022-10-17T13:46:00;6.70;;;2.67;;
25331;SDS011;13284;52.748;13.452;2022-10-17T13:48:30;3.67;;;2.50;;
25331;SDS011;13284;52.748;13.452;2022-10-17T13:50:59;2.67;;;2.20;;
25331;SDS011;13284;52.748;13.452;2022-10-17T13:56:03;4.17;;;2.80;;
25331;SDS011;13284;52.748;13.452;2022-10-17T13:58:33;5.00;;;2.87;;
25331;SDS011;13284;52.748;13.452;2022-10-17T14:01:07;5.40;;;2.70;;
25331;SDS011;13284;52.748;13.452;2022-10-17T14:03:34;2.63;;;2.23;;
25331;SDS011;13284;52.748;13.452;2022-10-17T14:06:04;3.50;;;2.97;;
25331;SDS011;13284;52.748;13.452;2022-10-17T14:08:48;3.50;;;3.20;;
25331;SDS011;13284;52.748;13.452;2022-10-17T14:13:58;4.60;;;2.90;;
25331;SDS011;13284;52.748;13.452;2022-10-17T14:16:26;3.40;;;2.60;;
25331;SDS011;13284;52.748;13.452;2022-10-17T14:18:58;4.80;;;2.70;;
25331;SDS011;13284;52.748;13.452;2022-10-17T14:21:25;3.63;;;2.70;;
25331;SDS011;13284;52.748;13.452;2022-10-17T14:26:59;2.50;;;2.20;;
25331;SDS011;13284;52.748;13.452;2022-10-17T14:29:26;2.40;;;2.20;;
25331;SDS011;13284;52.748;13.452;2022-10-17T14:32:01;2.50;;;2.30;;
25331;SDS011;13284;52.748;13.452;2022-10-17T14:34:30;2.67;;;2.47;;
25331;SDS011;13284;52.748;13.452;2022-10-17T14:36:57;2.47;;;2.27;;
25331;SDS011;13284;52.748;13.452;2022-10-17T14:39:24;3.20;;;2.53;;
25331;SDS011;13284;52.748;13.452;2022-10-17T14:41:51;2.40;;;2.20;;
25331;SDS011;13284;52.748;13.452;2022-10-17T14:44:18;2.53;;;2.33;;
25331;SDS011;13284;52.748;13.452;2022-10-17T14:46:55;4.33;;;2.30;;
25331;SDS011;13284;52.748;13.452;2022-10-17T14:49:31;2.97;;;2.10;;
25331;SDS011;13284;52.748;13.452;2022-10-17T14:54:47;6.17;;;2.60;;
25331;SDS011;13284;52.748;13.452;2022-10-17T14:57:14;3.27;;;2.57;;
25331;SDS011;13284;52.748;13.452;2022-10-17T15:00:02;2.67;;;2.17;;
25331;SDS011;13284;52.748;13.452;2022-10-17T15:02:28;4.00;;;2.30;;
25331;SDS011;13284;52.748;13.452;2022-10-17T15:04:54;3.03;;;2.27;;
25331;SDS011;13284;52.748;13.452;2022-10-17T15:07:20;2.50;;;2.30;;
25331;SDS011;13284;52.748;13.452;2022-10-17T15:09:46;2.60;;;2.40;;
25331;SDS011;13284;52.748;13.452;2022-10-17T15:12:14;4.47;;;4.07;;
25331;SDS011;13284;52.748;13.452;2022-10-17T15:14:42;2.90;;;2.10;;
25331;SDS011;13284;52.748;13.452;2022-10-17T15:17:10;5.37;;;4.77;;
25331;SDS011;13284;52.748;13.452;2022-10-17T15:19:38;2.57;;;2.37;;
25331;SDS011;13284;52.748;13.452;2022-10-17T15:22:03;2.80;;;2.33;;
25331;SDS011;13284;52.748;13.452;2022-10-17T15:24:29;2.87;;;2.47;;
25331;SDS011;13284;52.748;13.452;2022-10-17T15:26:54;3.80;;;2.97;;
25331;SDS011;13284;52.748;13.452;2022-10-17T15:29:20;6.13;;;3.50;;
25331;SDS011;13284;52.748;13.452;2022-10-17T15:31:46;4.30;;;3.37;;
25331;SDS011;13284;52.748;13.452;2022-10-17T15:34:11;3.40;;;2.60;;
25331;SDS011;13284;52.748;13.452;2022-10-17T15:36:40;3.67;;;2.87;;
25331;SDS011;13284;52.748;13.452;2022-10-17T15:39:12;4.77;;;4.37;;
25331;SDS011;13284;52.748;13.452;2022-10-17T15:41:37;7.07;;;6.30;;
25331;SDS011;13284;52.748;13.452;2022-10-17T15:44:03;10.17;;;6.83;;
25331;SDS011;13284;52.748;13.452;2022-10-17T15:46:29;7.73;;;6.23;;
25331;SDS011;13284;52.748;13.452;2022-10-17T15:49:00;8.63;;;7.40;;
25331;SDS011;13284;52.748;13.452;2022-10-17T15:51:33;10.03;;;6.47;;
25331;SDS011;13284;52.748;13.452;2022-10-17T15:53:59;10.40;;;9.40;;
25331;SDS011;13284;52.748;13.452;2022-10-17T15:56:29;8.97;;;8.17;;
25331;SDS011;13284;52.748;13.452;2022-10-17T15:59:03;7.90;;;7.30;;
25331;SDS011;13284;52.748;13.452;2022-10-17T16:01:32;10.97;;;8.07;;
25331;SDS011;13284;52.748;13.452;2022-10-17T16:03:58;9.60;;;7.60;;
25331;SDS011;13284;52.748;13.452;2022-10-17T16:06:24;19.60;;;16.13;;
25331;SDS011;13284;52.748;13.452;2022-10-17T16:08:50;10.47;;;9.37;;
25331;SDS011;13284;52.748;13.452;2022-10-17T16:11:35;8.03;;;6.37;;
25331;SDS011;13284;52.748;13.452;2022-10-17T16:14:06;5.87;;;5.27;;
25331;SDS011;13284;52.748;13.452;2022-10-17T16:16:35;7.23;;;4.40;;
25331;SDS011;13284;52.748;13.452;2022-10-17T16:19:01;5.00;;;4.50;;
25331;SDS011;13284;52.748;13.452;2022-10-17T16:21:28;4.57;;;3.83;;
25331;SDS011;13284;52.748;13.452;2022-10-17T16:23:56;4.83;;;4.33;;
25331;SDS011;13284;52.748;13.452;2022-10-17T16:26:22;4.03;;;3.63;;